Time;durP1;ratioP1;P1;durP2;ratioP2;P2;SDS_P1;SDS_P2;PMS_P1;PMS_P2;Temp;Humidity;BMP_temperature;BMP_pressure;BME280_temperature;BME280_humidity;BME280_pressure;Samples;Min_cycle;Max_cycle;Signal;HPM_P1;HPM_P2
2023/09/12 00:01:24;;;;;;;0.80;0.63;;;20.40;99.90;;;;;;5114252;28;20463;-78
2023/09/12 00:03:49;;;;;;;0.50;0.50;;;20.40;99.90;;;;;;5113023;28;20085;-78
2023/09/12 00:06:15;;;;;;;0.30;0.30;;;20.40;99.90;;;;;;5114127;28;20388;-79
2023/09/12 00:08:41;;;;;;;3.27;0.80;;;20.30;99.90;;;;;;5114163;28;20087;-79
2023/09/12 00:11:11;;;;;;;0.60;0.60;;;20.30;99.90;;;;;;5114255;28;20036;-78
2023/09/12 00:13:39;;;;;;;0.80;0.75;;;20.10;99.90;;;;;;5114056;28;20040;-78
2023/09/12 00:16:06;;;;;;;0.30;0.30;;;20.20;99.90;;;;;;5114288;28;20092;-78
2023/09/12 00:18:34;;;;;;;1.17;0.68;;;20.20;99.90;;;;;;5113953;28;20040;-78
2023/09/12 00:21:00;;;;;;;0.60;0.55;;;20.20;99.90;;;;;;5114029;28;20043;-78
2023/09/12 00:23:26;;;;;;;0.75;0.63;;;20.20;99.90;;;;;;5114089;28;20050;-79
2023/09/12 00:25:52;;;;;;;0.87;0.63;;;20.20;99.90;;;;;;5113909;28;20041;-78
2023/09/12 00:28:18;;;;;;;0.50;0.50;;;20.20;99.90;;;;;;5113945;28;20042;-79
2023/09/12 00:30:44;;;;;;;0.30;0.30;;;20.20;99.90;;;;;;5113892;28;20378;-78
2023/09/12 00:33:09;;;;;;;0.90;0.90;;;20.20;99.90;;;;;;5113784;28;20042;-79
2023/09/12 00:35:35;;;;;;;0.50;0.50;;;20.20;99.90;;;;;;5147262;27;20040;-78
2023/09/12 00:38:01;;;;;;;0.90;0.70;;;20.10;99.90;;;;;;5113909;28;20403;-79
2023/09/12 00:40:26;;;;;;;1.00;0.93;;;20.10;99.90;;;;;;5113903;28;20031;-77
2023/09/12 00:42:52;;;;;;;0.77;0.67;;;20.10;99.90;;;;;;5113745;28;20036;-79
2023/09/12 00:45:18;;;;;;;0.40;0.40;;;20.10;99.90;;;;;;5113844;28;20047;-80
2023/09/12 00:47:44;;;;;;;0.40;0.40;;;20.00;99.90;;;;;;5115558;28;20031;-80
2023/09/12 00:50:11;;;;;;;1.75;1.20;;;20.00;99.90;;;;;;5117752;28;20046;-78
2023/09/12 00:52:38;;;;;;;1.45;0.82;;;20.00;99.90;;;;;;5117617;28;20044;-79
2023/09/12 00:55:05;;;;;;;0.50;0.50;;;19.90;99.90;;;;;;5117544;28;20040;-80
2023/09/12 00:57:32;;;;;;;0.60;0.60;;;19.90;99.90;;;;;;5117443;28;20122;-79
2023/09/12 00:59:57;;;;;;;;;;;20.00;99.90;;;;;;5117962;28;20047;-77
2023/09/12 01:02:24;;;;;;;1.33;0.63;;;19.90;99.90;;;;;;5117607;28;19916;-79
2023/09/12 01:04:51;;;;;;;0.60;0.60;;;19.90;99.90;;;;;;5117297;28;20123;-78
2023/09/12 01:07:17;;;;;;;0.63;0.63;;;19.90;99.90;;;;;;5117444;28;20043;-77
2023/09/12 01:09:42;;;;;;;1.20;0.60;;;20.00;99.90;;;;;;5117375;28;20378;-79
2023/09/12 01:12:08;;;;;;;0.50;0.50;;;19.90;99.90;;;;;;5117283;28;20043;-78
2023/09/12 01:14:34;;;;;;;0.80;0.80;;;19.90;99.90;;;;;;5117046;28;20048;-81
2023/09/12 01:17:02;;;;;;;0.50;0.40;;;19.90;99.90;;;;;;5117524;28;20123;-80
2023/09/12 01:19:27;;;;;;;0.60;0.40;;;19.90;99.90;;;;;;5117125;28;20083;-79
2023/09/12 01:22:24;;;;;;;1.20;0.70;;;20.00;99.90;;;;;;5117198;28;20474;-79
2023/09/12 01:25:14;;;;;;;0.30;0.30;;;20.00;99.90;;;;;;5117084;28;20055;-79
2023/09/12 01:27:46;;;;;;;0.70;0.70;;;20.00;99.90;;;;;;5117021;28;20039;-79
2023/09/12 01:30:16;;;;;;;0.50;0.50;;;20.00;99.90;;;;;;5116947;28;20035;-78
2023/09/12 01:32:42;;;;;;;0.63;0.63;;;19.90;99.90;;;;;;5117078;28;20109;-79
2023/09/12 01:35:08;;;;;;;0.55;0.47;;;19.90;99.90;;;;;;5116686;27;20044;-79
2023/09/12 01:37:34;;;;;;;0.37;0.37;;;19.90;99.90;;;;;;5116947;28;20493;-79
2023/09/12 01:40:01;;;;;;;1.23;0.87;;;19.90;99.90;;;;;;5116806;28;20063;-79
2023/09/12 01:42:45;;;;;;;;;;;19.90;99.90;;;;;;5117216;28;20043;-79
2023/09/12 01:45:13;;;;;;;0.85;0.60;;;19.80;99.90;;;;;;5116760;28;20007;-78
2023/09/12 01:47:40;;;;;;;0.70;0.70;;;19.80;99.90;;;;;;5116553;28;20176;-79
2023/09/12 01:50:09;;;;;;;1.08;0.73;;;19.80;99.90;;;;;;5116994;28;20036;-78
2023/09/12 01:52:36;;;;;;;1.55;0.82;;;19.70;99.90;;;;;;5116511;28;20031;-80
2023/09/12 01:55:02;;;;;;;0.85;0.77;;;19.70;99.90;;;;;;5116562;28;20463;-79
2023/09/12 01:57:28;;;;;;;0.75;0.70;;;19.60;99.90;;;;;;5116710;28;20039;-78
2023/09/12 01:59:54;;;;;;;2.55;0.95;;;19.60;99.90;;;;;;5116148;28;20100;-79
2023/09/12 02:02:19;;;;;;;1.60;0.83;;;19.60;99.90;;;;;;5116256;28;20436;-78
2023/09/12 02:05:09;;;;;;;0.30;0.30;;;19.60;99.90;;;;;;5116299;28;20032;-79
2023/09/12 02:07:38;;;;;;;1.02;1.02;;;19.60;99.90;;;;;;5116564;28;20032;-79
2023/09/12 02:10:04;;;;;;;0.63;0.60;;;19.50;99.90;;;;;;5116053;28;20098;-78
2023/09/12 02:12:31;;;;;;;0.82;0.82;;;19.50;99.90;;;;;;5116031;28;20058;-78
2023/09/12 02:14:56;;;;;;;;;;;19.50;99.90;;;;;;5116576;28;20043;-78
2023/09/12 02:17:22;;;;;;;0.52;0.52;;;19.40;99.90;;;;;;5116171;28;19976;-79
2023/09/12 02:19:48;;;;;;;0.57;0.57;;;19.40;99.90;;;;;;5116402;28;20455;-78
2023/09/12 02:22:14;;;;;;;0.95;0.80;;;19.40;99.90;;;;;;5116045;28;20428;-78
2023/09/12 02:24:39;;;;;;;1.70;1.03;;;19.40;99.90;;;;;;5115979;28;20071;-79
2023/09/12 02:27:05;;;;;;;0.97;0.67;;;19.40;99.90;;;;;;5115914;28;20054;-79
2023/09/12 02:29:32;;;;;;;0.60;0.60;;;19.40;99.90;;;;;;5115720;28;20467;-78
2023/09/12 02:31:58;;;;;;;0.60;0.60;;;19.40;99.90;;;;;;5115445;28;20555;-78
2023/09/12 02:34:24;;;;;;;1.60;0.77;;;19.30;99.90;;;;;;5115743;28;20039;-78
2023/09/12 02:36:49;;;;;;;0.40;0.30;;;19.30;99.90;;;;;;5115643;28;20104;-78
2023/09/12 02:39:15;;;;;;;0.50;0.50;;;19.30;99.90;;;;;;5115646;28;20043;-78
2023/09/12 02:41:41;;;;;;;0.43;0.43;;;19.30;99.90;;;;;;5115505;28;20038;-78
2023/09/12 02:44:07;;;;;;;0.90;0.70;;;19.30;99.90;;;;;;5115528;28;20043;-80
2023/09/12 02:46:33;;;;;;;0.80;0.70;;;19.30;99.90;;;;;;5148848;27;20128;-79
2023/09/12 02:48:59;;;;;;;1.02;0.93;;;19.30;99.90;;;;;;5115653;27;20452;-79
2023/09/12 02:51:26;;;;;;;0.67;0.67;;;19.20;99.90;;;;;;5115677;28;20126;-79
2023/09/12 02:53:51;;;;;;;0.98;0.80;;;19.20;99.90;;;;;;5115342;28;20122;-80
2023/09/12 02:56:17;;;;;;;0.37;0.37;;;19.20;99.90;;;;;;5115312;28;20442;-79
2023/09/12 02:58:46;;;;;;;1.03;0.57;;;19.20;99.90;;;;;;5115235;28;20278;-79
2023/09/12 03:01:16;;;;;;;0.63;0.63;;;19.20;99.90;;;;;;5115162;28;20043;-79
2023/09/12 03:03:41;;;;;;;1.15;0.73;;;19.10;99.90;;;;;;5115204;28;20108;-79
2023/09/12 03:06:07;;;;;;;0.50;0.50;;;19.10;99.90;;;;;;5115173;28;20040;-79
2023/09/12 03:08:33;;;;;;;0.47;0.40;;;19.10;99.90;;;;;;5115277;28;20115;-79
2023/09/12 03:10:58;;;;;;;1.40;0.50;;;19.10;99.90;;;;;;5114371;28;20165;-79
2023/09/12 03:13:25;;;;;;;1.57;0.83;;;19.10;99.90;;;;;;5114905;28;20123;-79
2023/09/12 03:15:51;;;;;;;0.50;0.47;;;19.10;99.90;;;;;;5114958;28;20071;-79
2023/09/12 03:18:17;;;;;;;0.75;0.75;;;19.10;99.90;;;;;;5114736;28;20090;-79
2023/09/12 03:20:42;;;;;;;0.50;0.50;;;19.10;99.90;;;;;;5115303;28;20035;-79
2023/09/12 03:23:08;;;;;;;3.27;0.43;;;19.10;99.90;;;;;;5115121;28;20157;-79
2023/09/12 03:25:38;;;;;;;0.70;0.67;;;19.10;99.90;;;;;;5114846;28;20035;-80
2023/09/12 03:28:05;;;;;;;0.50;0.50;;;19.10;99.90;;;;;;5114739;28;20067;-79
2023/09/12 03:30:32;;;;;;;0.60;0.60;;;19.10;99.90;;;;;;5114706;28;20481;-79
2023/09/12 03:32:58;;;;;;;0.38;0.38;;;19.10;99.90;;;;;;5114594;28;20027;-79
2023/09/12 03:35:24;;;;;;;0.63;0.63;;;19.10;99.90;;;;;;5114626;28;20036;-79
2023/09/12 03:37:49;;;;;;;0.30;0.30;;;19.10;99.90;;;;;;5113836;28;20485;-79
2023/09/12 03:40:15;;;;;;;0.43;0.43;;;19.10;99.90;;;;;;5113343;28;20039;-79
2023/09/12 03:42:40;;;;;;;1.00;0.73;;;19.10;99.90;;;;;;5114452;28;20202;-79
2023/09/12 03:45:07;;;;;;;0.50;0.50;;;19.10;99.90;;;;;;5113220;28;20051;-79
2023/09/12 03:47:32;;;;;;;0.47;0.47;;;19.10;99.90;;;;;;5114359;28;20458;-80
2023/09/12 03:49:58;;;;;;;0.60;0.50;;;19.10;99.90;;;;;;5114400;28;20043;-79
2023/09/12 03:52:24;;;;;;;0.43;0.40;;;19.00;99.90;;;;;;5114238;28;20032;-78
2023/09/12 03:54:49;;;;;;;0.53;0.50;;;19.00;99.90;;;;;;5113987;28;20382;-80
2023/09/12 03:57:15;;;;;;;0.50;0.50;;;19.00;99.90;;;;;;5114301;28;20086;-79
2023/09/12 03:59:41;;;;;;;0.40;0.40;;;19.00;99.90;;;;;;5114305;28;20036;-80
2023/09/12 04:02:06;;;;;;;0.47;0.40;;;19.00;99.90;;;;;;5114202;28;20407;-80
2023/09/12 04:04:32;;;;;;;0.50;0.50;;;19.00;99.90;;;;;;5113004;28;20088;-79
2023/09/12 04:06:58;;;;;;;0.50;0.50;;;18.90;99.90;;;;;;5114202;28;20074;-79
2023/09/12 04:09:23;;;;;;;0.60;0.60;;;18.90;99.90;;;;;;5114134;28;20467;-79
2023/09/12 04:11:49;;;;;;;0.30;0.30;;;18.90;99.90;;;;;;5114365;28;20050;-79
2023/09/12 04:14:15;;;;;;;0.40;0.40;;;18.90;99.90;;;;;;5114000;28;20423;-79
2023/09/12 04:16:40;;;;;;;0.40;0.40;;;18.90;99.90;;;;;;5112801;28;20044;-79
2023/09/12 04:19:06;;;;;;;0.60;0.60;;;18.90;99.90;;;;;;5114073;28;20075;-79
2023/09/12 04:21:32;;;;;;;0.83;0.83;;;18.90;99.90;;;;;;5115290;28;20093;-79
2023/09/12 04:23:57;;;;;;;0.30;0.30;;;18.80;99.90;;;;;;5118258;28;20039;-79
2023/09/12 04:26:23;;;;;;;0.50;0.50;;;18.80;99.90;;;;;;5117884;28;20038;-79
2023/09/12 04:28:49;;;;;;;0.63;0.50;;;18.90;99.90;;;;;;5118201;28;20031;-79
2023/09/12 04:31:14;;;;;;;0.60;0.37;;;18.90;99.90;;;;;;5118166;28;20099;-80
2023/09/12 04:33:40;;;;;;;0.40;0.40;;;18.90;99.90;;;;;;5118015;28;20429;-79
2023/09/12 04:36:06;;;;;;;0.37;0.37;;;18.90;99.90;;;;;;5118013;28;20036;-79
2023/09/12 04:38:32;;;;;;;0.77;0.50;;;18.80;99.90;;;;;;5117975;28;20039;-79
2023/09/12 04:41:04;;;;;;;;;;;18.80;99.90;;;;;;5118018;28;20079;-79
2023/09/12 04:43:31;;;;;;;0.30;0.30;;;18.80;99.90;;;;;;5117949;28;19941;-79
2023/09/12 04:45:56;;;;;;;0.30;0.30;;;18.80;99.90;;;;;;5116568;28;20036;-79
2023/09/12 04:48:22;;;;;;;0.40;0.40;;;18.80;99.90;;;;;;5118156;28;20088;-79
2023/09/12 04:50:48;;;;;;;0.40;0.40;;;18.80;99.90;;;;;;5117732;28;20096;-79
2023/09/12 04:53:14;;;;;;;0.30;0.30;;;18.70;99.90;;;;;;5117704;28;20304;-79
2023/09/12 04:55:40;;;;;;;0.60;0.47;;;18.70;99.90;;;;;;5099531;28;20039;-79
2023/09/12 04:58:06;;;;;;;0.77;0.57;;;18.70;99.90;;;;;;5117217;28;20036;-79
2023/09/12 05:00:32;;;;;;;0.30;0.30;;;18.70;99.90;;;;;;5116314;28;20467;-79
2023/09/12 05:02:58;;;;;;;;;;;18.60;99.90;;;;;;5117849;28;20534;-78
2023/09/12 05:05:24;;;;;;;0.60;0.50;;;18.70;99.90;;;;;;5117271;28;20002;-79
2023/09/12 05:07:51;;;;;;;1.40;0.70;;;18.70;99.90;;;;;;5117499;28;20044;-79
2023/09/12 05:10:18;;;;;;;0.68;0.60;;;18.70;99.90;;;;;;5117301;28;20047;-79
2023/09/12 05:12:43;;;;;;;;;;;18.70;99.90;;;;;;5117570;28;20035;-78
2023/09/12 05:15:09;;;;;;;0.30;0.30;;;18.70;99.90;;;;;;5116411;28;19973;-80
2023/09/12 05:17:35;;;;;;;0.33;0.33;;;18.70;99.90;;;;;;5117403;28;20051;-78
2023/09/12 05:20:00;;;;;;;0.30;0.30;;;18.80;99.90;;;;;;5117166;28;20478;-78
2023/09/12 05:22:27;;;;;;;0.30;0.30;;;18.70;99.90;;;;;;5118066;28;20043;-79
2023/09/12 05:24:52;;;;;;;0.50;0.50;;;18.70;99.90;;;;;;5116364;28;20122;-79
2023/09/12 05:27:18;;;;;;;0.77;0.47;;;18.70;99.90;;;;;;5117493;28;20438;-78
2023/09/12 05:29:44;;;;;;;0.30;0.30;;;18.70;99.90;;;;;;5117911;28;20040;-79
2023/09/12 05:32:09;;;;;;;0.53;0.50;;;18.70;99.90;;;;;;5117211;28;20043;-80
2023/09/12 05:34:35;;;;;;;0.47;0.40;;;18.70;99.90;;;;;;5116307;28;20426;-79
2023/09/12 05:37:01;;;;;;;0.50;0.50;;;18.70;99.90;;;;;;5117144;28;20147;-79
2023/09/12 05:39:26;;;;;;;0.80;0.80;;;18.70;99.90;;;;;;5116964;28;20043;-78
2023/09/12 05:41:52;;;;;;;0.83;0.57;;;18.70;99.90;;;;;;5115530;28;20092;-78
2023/09/12 05:44:18;;;;;;;0.33;0.33;;;18.60;99.90;;;;;;5115248;28;20521;-77
2023/09/12 05:46:47;;;;;;;1.60;0.82;;;18.60;99.90;;;;;;5116441;28;20524;-77
2023/09/12 05:49:14;;;;;;;0.70;0.70;;;18.60;99.90;;;;;;5116573;28;20471;-77
2023/09/12 05:51:40;;;;;;;1.25;0.82;;;18.50;99.90;;;;;;5116551;28;20031;-77
2023/09/12 05:54:06;;;;;;;0.63;0.60;;;18.50;99.90;;;;;;5116527;28;20092;-77
2023/09/12 05:56:32;;;;;;;0.63;0.63;;;18.50;99.90;;;;;;5116326;28;20343;-77
2023/09/12 05:58:58;;;;;;;0.60;0.50;;;18.50;99.90;;;;;;5116821;28;20075;-76
2023/09/12 06:01:23;;;;;;;0.70;0.67;;;18.50;99.90;;;;;;5115940;28;20470;-76
2023/09/12 06:03:49;;;;;;;0.47;0.47;;;18.60;99.90;;;;;;5114762;28;20112;-75
2023/09/12 06:06:14;;;;;;;0.73;0.53;;;18.60;99.90;;;;;;5116076;28;20031;-77
2023/09/12 06:08:40;;;;;;;0.70;0.70;;;18.60;99.90;;;;;;5116175;28;20120;-74
2023/09/12 06:11:06;;;;;;;0.50;0.50;;;18.60;99.90;;;;;;5116085;28;20371;-77
2023/09/12 06:13:32;;;;;;;0.40;0.40;;;18.70;99.90;;;;;;5116163;28;20132;-78
2023/09/12 06:15:59;;;;;;;0.80;0.80;;;18.70;99.90;;;;;;5115499;28;20061;-80
2023/09/12 06:18:26;;;;;;;0.50;0.50;;;18.80;99.90;;;;;;5116113;27;20097;-77
2023/09/12 06:20:52;;;;;;;0.32;0.32;;;18.70;99.90;;;;;;5115806;28;20043;-78
2023/09/12 06:23:17;;;;;;;0.83;0.80;;;18.80;99.90;;;;;;5115817;28;20035;-75
2023/09/12 06:25:43;;;;;;;0.67;0.67;;;18.80;99.90;;;;;;5115815;28;20490;-74
2023/09/12 06:28:10;;;;;;;0.87;0.70;;;18.90;99.90;;;;;;5115568;28;20035;-74
2023/09/12 06:30:36;;;;;;;0.68;0.32;;;18.90;99.90;;;;;;5115395;28;20127;-75
2023/09/12 06:33:01;;;;;;;0.67;0.67;;;19.00;99.90;;;;;;5114782;28;20118;-75
2023/09/12 06:35:27;;;;;;;0.63;0.50;;;19.00;99.90;;;;;;5115570;28;20424;-75
2023/09/12 06:37:55;;;;;;;0.40;0.40;;;19.00;99.90;;;;;;5115628;28;20451;-75
2023/09/12 06:40:21;;;;;;;0.40;0.40;;;19.00;99.90;;;;;;5115628;28;20114;-75
2023/09/12 06:42:47;;;;;;;0.63;0.63;;;19.00;99.90;;;;;;5115571;28;20481;-75
2023/09/12 06:45:12;;;;;;;0.97;0.87;;;19.00;99.90;;;;;;5114554;28;20032;-75
2023/09/12 06:47:38;;;;;;;0.50;0.50;;;19.00;99.90;;;;;;5115469;28;20071;-75
2023/09/12 06:50:04;;;;;;;0.77;0.73;;;19.00;99.90;;;;;;5115426;28;20043;-75
2023/09/12 06:52:29;;;;;;;0.43;0.43;;;19.00;99.90;;;;;;5115227;27;20089;-75
2023/09/12 06:54:55;;;;;;;0.60;0.60;;;19.10;99.90;;;;;;5115195;28;20043;-74
2023/09/12 06:57:20;;;;;;;1.23;0.73;;;19.10;99.90;;;;;;5115221;28;20459;-75
2023/09/12 06:59:49;;;;;;;1.70;0.53;;;19.10;99.90;;;;;;5115237;28;20039;-74
2023/09/12 07:02:14;;;;;;;0.70;0.70;;;19.10;99.90;;;;;;5115145;28;20075;-75
2023/09/12 07:04:40;;;;;;;0.87;0.53;;;19.20;99.90;;;;;;5115161;28;20078;-75
2023/09/12 07:07:05;;;;;;;0.57;0.57;;;19.20;99.90;;;;;;5115489;28;20055;-75
2023/09/12 07:09:31;;;;;;;0.67;0.67;;;19.20;99.90;;;;;;5115189;28;20051;-74
2023/09/12 07:11:57;;;;;;;1.50;1.23;;;19.30;99.90;;;;;;5114958;28;20375;-76
2023/09/12 07:14:24;;;;;;;0.60;0.57;;;19.20;99.90;;;;;;5114947;28;20108;-75
2023/09/12 07:16:50;;;;;;;5.75;1.27;;;19.20;99.90;;;;;;5115070;28;20043;-75
2023/09/12 07:19:16;;;;;;;0.43;0.43;;;19.20;99.90;;;;;;5114915;28;20364;-75
2023/09/12 07:21:41;;;;;;;0.57;0.57;;;19.20;99.90;;;;;;5114748;28;20044;-75
2023/09/12 07:24:07;;;;;;;0.40;0.40;;;19.20;99.90;;;;;;5114755;28;20046;-75
2023/09/12 07:26:33;;;;;;;2.40;0.60;;;19.20;99.90;;;;;;5114718;28;20043;-74
2023/09/12 07:29:02;;;;;;;1.23;0.77;;;19.20;99.90;;;;;;5114754;28;20087;-75
2023/09/12 07:31:28;;;;;;;0.50;0.50;;;19.20;99.90;;;;;;5114758;28;20228;-75
2023/09/12 07:33:53;;;;;;;0.93;0.77;;;19.20;99.90;;;;;;5114485;28;20370;-75
2023/09/12 07:36:19;;;;;;;0.40;0.40;;;19.20;99.90;;;;;;5113403;28;20054;-76
2023/09/12 07:38:45;;;;;;;1.17;1.07;;;19.20;99.90;;;;;;5114078;28;20039;-75
2023/09/12 07:41:11;;;;;;;0.40;0.40;;;19.20;99.90;;;;;;5114868;28;20142;-78
2023/09/12 07:43:36;;;;;;;0.97;0.87;;;19.30;99.90;;;;;;5114461;28;20152;-73
2023/09/12 07:46:02;;;;;;;0.97;0.80;;;19.30;99.90;;;;;;5114372;28;20378;-73
2023/09/12 07:48:28;;;;;;;0.87;0.70;;;19.30;99.90;;;;;;5114316;28;20039;-74
2023/09/12 07:50:53;;;;;;;0.53;0.53;;;19.30;99.90;;;;;;5114204;28;20048;-75
2023/09/12 07:53:19;;;;;;;0.90;0.80;;;19.30;99.90;;;;;;5114207;28;20039;-76
2023/09/12 07:55:46;;;;;;;0.60;0.60;;;19.30;99.90;;;;;;5113809;28;20368;-75
2023/09/12 07:58:13;;;;;;;1.90;0.95;;;19.30;99.90;;;;;;5114033;28;20043;-75
2023/09/12 08:00:39;;;;;;;0.60;0.60;;;19.30;99.90;;;;;;5113988;28;20368;-73
2023/09/12 08:03:04;;;;;;;1.97;0.90;;;19.40;99.90;;;;;;5114256;28;20097;-75
2023/09/12 08:05:30;;;;;;;1.13;1.07;;;19.40;99.90;;;;;;5113878;28;20269;-74
2023/09/12 08:07:56;;;;;;;0.50;0.50;;;19.40;99.90;;;;;;5113773;28;20071;-76
2023/09/12 08:10:21;;;;;;;1.47;1.33;;;19.40;99.90;;;;;;5113829;28;20452;-74
2023/09/12 08:12:47;;;;;;;0.80;0.80;;;19.40;99.90;;;;;;5114064;28;20119;-75
2023/09/12 08:15:13;;;;;;;1.30;1.10;;;19.40;99.90;;;;;;5114492;28;20039;-76
2023/09/12 08:17:39;;;;;;;0.93;0.87;;;19.50;99.90;;;;;;5114341;28;20470;-77
2023/09/12 08:20:06;;;;;;;0.85;0.75;;;19.50;99.90;;;;;;5114361;28;20071;-76
2023/09/12 08:22:32;;;;;;;1.13;1.02;;;19.60;99.90;;;;;;5114001;28;20397;-77
2023/09/12 08:24:57;;;;;;;1.73;0.93;;;19.70;99.90;;;;;;5113771;28;20043;-76
2023/09/12 08:27:23;;;;;;;0.77;0.77;;;19.90;99.90;;;;;;5114106;28;20374;-76
2023/09/12 08:29:49;;;;;;;2.27;0.80;;;20.00;99.90;;;;;;5114387;28;20419;-76
2023/09/12 08:32:14;;;;;;;2.50;1.40;;;20.10;99.90;;;;;;5113873;28;20039;-76
2023/09/12 08:34:40;;;;;;;2.43;1.83;;;20.10;99.90;;;;;;5114461;28;20046;-82
2023/09/12 08:37:05;;;;;;;2.50;1.43;;;20.10;99.90;;;;;;5114340;28;20040;-80
2023/09/12 08:39:44;;;;;;;1.20;1.10;;;20.20;99.90;;;;;;5113374;28;20065;-80
2023/09/12 08:42:14;;;;;;;5.07;1.40;;;20.20;99.90;;;;;;5113606;28;20043;-80
2023/09/12 08:44:41;;;;;;;1.30;1.08;;;20.20;99.90;;;;;;5112930;28;20379;-80
2023/09/12 08:47:09;;;;;;;1.10;1.00;;;20.20;99.90;;;;;;5113834;28;20028;-81
2023/09/12 08:49:37;;;;;;;0.60;0.60;;;20.20;99.90;;;;;;5114006;28;20075;-81
2023/09/12 08:52:03;;;;;;;0.68;0.60;;;20.30;99.90;;;;;;5113644;28;20061;-80
2023/09/12 08:54:29;;;;;;;;;;;20.30;99.90;;;;;;5114267;28;20122;-80
2023/09/12 08:56:56;;;;;;;0.40;0.40;;;20.30;99.90;;;;;;5112592;28;20348;-80
2023/09/12 08:59:21;;;;;;;1.33;0.80;;;20.40;99.90;;;;;;5113826;28;20036;-80
2023/09/12 09:01:50;;;;;;;0.97;0.87;;;20.50;99.90;;;;;;5113519;28;20043;-80
2023/09/12 09:04:17;;;;;;;2.50;1.63;;;20.50;99.90;;;;;;5113746;28;20043;-80
2023/09/12 09:06:42;;;;;;;0.70;0.68;;;20.60;99.90;;;;;;5113657;28;20035;-80
2023/09/12 09:09:09;;;;;;;0.50;0.50;;;20.70;99.90;;;;;;5115489;28;20058;-80
2023/09/12 09:11:35;;;;;;;0.70;0.65;;;20.80;99.90;;;;;;5117467;28;20044;-80
2023/09/12 09:14:03;;;;;;;1.30;0.80;;;20.80;99.90;;;;;;5117346;28;20047;-80
2023/09/12 09:16:30;;;;;;;0.52;0.52;;;20.90;99.90;;;;;;5117311;28;20039;-80
2023/09/12 09:18:57;;;;;;;1.80;1.08;;;21.00;99.90;;;;;;5117314;28;20043;-80
2023/09/12 09:21:25;;;;;;;0.50;0.50;;;21.00;99.90;;;;;;5117069;28;20041;-80
2023/09/12 09:23:56;;;;;;;0.95;0.93;;;21.00;99.90;;;;;;5117050;28;20039;-79
2023/09/12 09:26:22;;;;;;;2.10;1.10;;;21.00;99.90;;;;;;5116196;28;20043;-80
2023/09/12 09:29:05;;;;;;;0.55;0.55;;;21.10;99.90;;;;;;5117054;28;20119;-80
2023/09/12 09:31:32;;;;;;;1.02;0.88;;;21.20;99.90;;;;;;5116091;28;20096;-80
2023/09/12 09:33:59;;;;;;;0.60;0.60;;;21.20;99.90;;;;;;5116790;28;20043;-80
2023/09/12 09:36:25;;;;;;;0.63;0.63;;;21.20;99.90;;;;;;5115719;28;20176;-80
2023/09/12 09:38:51;;;;;;;;;;;21.30;99.90;;;;;;5117605;28;20047;-80
2023/09/12 09:41:21;;;;;;;0.50;0.50;;;21.30;99.90;;;;;;5116791;28;20286;-80
2023/09/12 09:43:50;;;;;;;1.20;0.55;;;21.40;99.90;;;;;;5116884;28;20412;-80
2023/09/12 09:46:16;;;;;;;1.08;0.82;;;21.40;99.90;;;;;;5116610;28;20046;-80
2023/09/12 09:48:48;;;;;;;;;;;21.50;99.90;;;;;;5117588;28;20054;-80
2023/09/12 09:51:14;;;;;;;2.25;1.08;;;21.50;99.90;;;;;;5117053;28;19916;-80
2023/09/12 09:53:39;;;;;;;1.37;1.27;;;21.60;99.90;;;;;;5116283;28;20034;-80
2023/09/12 09:56:15;;;;;;;0.97;0.90;;;21.60;99.90;;;;;;5116541;28;20092;-80
2023/09/12 09:58:49;;;;;;;1.60;0.77;;;21.70;99.90;;;;;;5116509;28;20043;-80
2023/09/12 10:01:29;;;;;;;0.80;0.80;;;21.80;99.90;;;;;;5117147;28;20043;-80
2023/09/12 10:04:00;;;;;;;1.50;1.08;;;21.90;99.90;;;;;;5116392;28;20035;-81
2023/09/12 10:06:27;;;;;;;0.77;0.68;;;22.00;99.90;;;;;;5116271;28;20051;-80
2023/09/12 10:08:54;;;;;;;0.68;0.68;;;22.00;99.90;;;;;;5116556;28;20055;-80
2023/09/12 10:11:27;;;;;;;1.50;0.98;;;22.20;99.90;;;;;;5116072;28;20379;-80
2023/09/12 10:13:58;;;;;;;0.82;0.80;;;22.30;99.90;;;;;;5116044;28;20456;-79
2023/09/12 10:16:29;;;;;;;0.80;0.50;;;22.50;99.90;;;;;;5116400;28;20054;-79
2023/09/12 10:19:13;;;;;;;0.40;0.40;;;22.60;99.90;;;;;;5116016;28;20467;-80
2023/09/12 10:21:44;;;;;;;1.20;0.80;;;22.70;99.90;;;;;;5115994;28;20044;-79
2023/09/12 10:24:11;;;;;;;0.75;0.75;;;22.70;99.90;;;;;;5116451;28;20079;-79
2023/09/12 10:26:42;;;;;;;0.43;0.38;;;22.70;99.90;;;;;;5115615;28;20463;-80
2023/09/12 10:29:09;;;;;;;0.60;0.40;;;22.70;99.90;;;;;;5115863;28;20057;-80
2023/09/12 10:31:35;;;;;;;0.52;0.47;;;22.70;99.90;;;;;;5115447;28;20040;-80
2023/09/12 10:34:03;;;;;;;0.60;0.60;;;22.80;99.90;;;;;;5115657;28;20123;-79
2023/09/12 10:36:29;;;;;;;3.22;0.75;;;22.90;99.90;;;;;;5115522;28;20408;-79
2023/09/12 10:38:57;;;;;;;0.60;0.60;;;23.00;99.90;;;;;;5115685;28;20126;-79
2023/09/12 10:41:24;;;;;;;0.65;0.65;;;23.10;99.90;;;;;;5115640;28;20027;-79
2023/09/12 10:43:52;;;;;;;0.40;0.40;;;23.00;99.90;;;;;;5115904;28;20356;-79
2023/09/12 10:46:18;;;;;;;0.88;0.70;;;23.10;99.90;;;;;;5115499;28;20036;-79
2023/09/12 10:48:44;;;;;;;0.70;0.70;;;23.10;99.90;;;;;;5115362;28;20051;-80
2023/09/12 10:51:12;;;;;;;3.07;1.17;;;23.00;99.90;;;;;;5115439;28;20039;-80
2023/09/12 10:53:38;;;;;;;0.60;0.60;;;23.00;99.90;;;;;;5114198;28;20290;-80
2023/09/12 10:56:09;;;;;;;0.30;0.30;;;23.10;99.90;;;;;;5115633;28;20051;-80
2023/09/12 10:59:03;;;;;;;1.17;0.70;;;23.10;99.90;;;;;;5114415;28;20082;-80
2023/09/12 11:01:31;;;;;;;0.40;0.40;;;23.20;99.90;;;;;;5115253;28;20040;-86
2023/09/12 11:03:57;;;;;;;0.82;0.82;;;23.20;99.90;;;;;;5096863;28;20038;-79
2023/09/12 11:06:28;;;;;;;0.57;0.57;;;23.30;99.90;;;;;;5114944;28;20475;-81
2023/09/12 11:09:25;;;;;;;0.45;0.45;;;23.40;99.90;;;;;;5114785;28;20087;-81
2023/09/12 11:12:05;;;;;;;0.68;0.60;;;23.60;99.90;;;;;;5114682;28;20360;-82
2023/09/12 11:14:32;;;;;;;1.60;1.50;;;23.70;99.90;;;;;;5113852;28;20065;-80
2023/09/12 11:17:22;;;;;;;1.75;0.95;;;23.80;99.90;;;;;;5114889;28;20443;-77
2023/09/12 11:19:51;;;;;;;1.75;1.15;;;23.90;99.90;;;;;;5107213;28;20471;-76
2023/09/12 11:22:30;;;;;;;1.00;0.80;;;23.80;99.90;;;;;;5114874;28;20043;-80
2023/09/12 11:24:56;;;;;;;0.88;0.70;;;23.90;99.90;;;;;;5114769;28;20141;-76
2023/09/12 11:27:25;;;;;;;9.63;0.73;;;24.00;99.90;;;;;;5114727;28;20096;-79
2023/09/12 11:29:50;;;;;;;0.75;0.35;;;24.10;99.90;;;;;;5114365;28;20559;-79
2023/09/12 11:32:32;;;;;;;0.77;0.70;;;24.20;99.90;;;;;;5113940;28;20044;-81
2023/09/12 11:35:04;;;;;;;0.47;0.40;;;24.30;99.90;;;;;;5113436;28;20397;-83
2023/09/12 11:37:30;;;;;;;0.55;0.55;;;24.50;99.90;;;;;;5115079;28;20050;-83
2023/09/12 11:39:57;;;;;;;1.08;0.68;;;24.70;99.90;;;;;;5116227;28;20043;-84
2023/09/12 11:42:25;;;;;;;1.73;0.80;;;24.70;99.90;;;;;;5115254;28;20096;-76
2023/09/12 11:44:51;;;;;;;0.43;0.43;;;24.60;99.90;;;;;;5113036;28;20038;-81
2023/09/12 11:47:17;;;;;;;1.75;1.10;;;24.60;99.90;;;;;;5114481;28;20040;-79
2023/09/12 11:49:43;;;;;;;0.38;0.30;;;24.50;99.90;;;;;;5114699;28;20032;-81
2023/09/12 11:52:14;;;;;;;0.63;0.57;;;24.40;99.90;;;;;;5114321;28;20123;-82
2023/09/12 11:54:43;;;;;;;1.00;0.90;;;24.30;99.90;;;;;;5114525;28;20036;-82
2023/09/12 11:57:11;;;;;;;0.45;0.43;;;24.30;99.90;;;;;;5114284;28;20079;-82
2023/09/12 11:59:44;;;;;;;0.88;0.88;;;24.20;99.90;;;;;;5113287;28;20039;-82
2023/09/12 12:02:11;;;;;;;0.55;0.55;;;24.20;99.90;;;;;;5113368;28;20352;-82
2023/09/12 12:04:37;;;;;;;0.55;0.50;;;24.30;99.90;;;;;;5114213;28;20375;-82
2023/09/12 12:07:06;;;;;;;0.70;0.40;;;24.30;99.90;;;;;;5114171;28;20067;-75
2023/09/12 12:09:34;;;;;;;0.63;0.50;;;24.40;99.90;;;;;;5113516;28;20080;-79
2023/09/12 12:12:11;;;;;;;1.77;0.75;;;24.50;99.90;;;;;;5113800;28;20079;-79
2023/09/12 12:14:36;;;;;;;1.40;0.77;;;24.60;99.90;;;;;;5114043;28;20471;-79
2023/09/12 12:17:07;;;;;;;0.40;0.40;;;24.50;99.90;;;;;;5114014;28;20087;-78
2023/09/12 12:19:34;;;;;;;0.52;0.52;;;24.60;99.90;;;;;;5114039;28;20044;-78
2023/09/12 12:22:00;;;;;;;0.40;0.40;;;24.60;99.90;;;;;;5114083;28;20082;-78
2023/09/12 12:24:36;;;;;;;1.67;1.10;;;24.60;99.90;;;;;;5114027;28;20078;-79
2023/09/12 12:27:03;;;;;;;0.40;0.40;;;24.70;99.90;;;;;;5114126;28;20043;-85
2023/09/12 12:29:31;;;;;;;1.02;0.93;;;24.80;99.90;;;;;;5095829;28;20043;-79
2023/09/12 12:32:01;;;;;;;0.35;0.35;;;24.90;99.90;;;;;;5113912;28;20046;-79
2023/09/12 12:34:27;;;;;;;0.50;0.50;;;25.00;99.90;;;;;;5113801;28;20081;-79
2023/09/12 12:36:54;;;;;;;0.95;0.73;;;25.00;99.90;;;;;;5113671;28;20050;-79
2023/09/12 12:39:21;;;;;;;0.45;0.45;;;25.10;99.90;;;;;;5113676;28;20103;-79
2023/09/12 12:41:46;;;;;;;0.85;0.50;;;25.10;99.90;;;;;;5113574;28;20085;-80
2023/09/12 12:44:13;;;;;;;0.70;0.70;;;25.10;99.90;;;;;;5116175;28;20075;-77
2023/09/12 12:46:52;;;;;;;0.82;0.75;;;25.20;99.90;;;;;;5117783;28;20047;-75
2023/09/12 12:49:19;;;;;;;0.77;0.77;;;25.20;99.90;;;;;;5117826;28;20126;-76